Time;durP1;ratioP1;P1;durP2;ratioP2;P2;SDS_P1;SDS_P2;PMS_P1;PMS_P2;Temp;Humidity;BMP_temperature;BMP_pressure;BME280_temperature;BME280_humidity;BME280_pressure;Samples;Min_cycle;Max_cycle;Signal;HPM_P1;HPM_P2
2023/11/24 00:02:00;;;;;;;18.27;7.68;;;8.40;61.20;;;;;;7589987;23;20009;-68
2023/11/24 00:05:00;;;;;;;13.40;6.55;;;8.50;61.10;;;;;;7590556;23;20008;-67
2023/11/24 00:08:04;;;;;;;12.07;6.70;;;8.60;61.00;;;;;;7590806;23;20061;-67
2023/11/24 00:11:05;;;;;;;13.98;5.57;;;8.60;60.90;;;;;;7564194;23;20010;-69
2023/11/24 00:14:06;;;;;;;14.82;6.35;;;8.70;60.90;;;;;;7591060;23;20088;-68
2023/11/24 00:17:06;;;;;;;11.27;5.85;;;8.70;60.80;;;;;;7562816;23;20353;-68
2023/11/24 00:20:08;;;;;;;14.40;6.28;;;8.70;60.80;;;;;;7591025;23;20002;-68
2023/11/24 00:23:09;;;;;;;15.13;6.75;;;8.70;60.80;;;;;;7539489;23;20377;-69
2023/11/24 00:26:10;;;;;;;12.30;6.43;;;8.80;60.70;;;;;;7540368;23;20033;-69
2023/11/24 00:29:21;;;;;;;11.65;5.38;;;8.80;60.60;;;;;;7564122;23;20049;-68
2023/11/24 00:32:23;;;;;;;16.02;6.57;;;8.90;60.50;;;;;;7541421;23;20014;-69
2023/11/24 00:35:25;;;;;;;13.73;6.97;;;8.90;60.40;;;;;;7590253;23;20411;-69
2023/11/24 00:38:27;;;;;;;14.52;7.07;;;8.90;60.20;;;;;;7564138;23;20078;-68
2023/11/24 00:41:28;;;;;;;11.23;6.18;;;9.00;61.00;;;;;;7591793;23;20093;-68
2023/11/24 00:44:30;;;;;;;11.63;6.03;;;8.90;60.20;;;;;;7590700;23;20435;-68
2023/11/24 00:47:31;;;;;;;14.80;7.38;;;8.90;60.20;;;;;;7538790;23;20462;-68
2023/11/24 00:50:33;;;;;;;15.13;6.40;;;8.90;60.20;;;;;;7563827;23;20021;-69
2023/11/24 00:53:35;;;;;;;11.48;7.05;;;8.90;60.20;;;;;;7516378;23;20021;-68
2023/11/24 00:56:37;;;;;;;10.73;5.68;;;8.80;60.00;;;;;;7563563;23;20088;-68
2023/11/24 00:59:38;;;;;;;11.05;5.90;;;8.80;60.20;;;;;;7590438;23;20032;-69
2023/11/24 01:02:39;;;;;;;9.10;4.75;;;8.70;60.30;;;;;;7564080;23;20017;-69
2023/11/24 01:05:40;;;;;;;13.27;6.63;;;8.70;60.50;;;;;;7564642;23;20006;-68
2023/11/24 01:08:41;;;;;;;11.50;5.65;;;8.60;60.50;;;;;;7589680;23;20002;-68
2023/11/24 01:11:43;;;;;;;13.00;5.55;;;8.70;60.50;;;;;;7589812;23;20009;-69
2023/11/24 01:14:44;;;;;;;16.27;6.10;;;8.50;60.50;;;;;;7563328;23;20385;-68
2023/11/24 01:17:46;;;;;;;7.55;4.57;;;8.40;60.60;;;;;;7589766;23;20089;-69
2023/11/24 01:20:47;;;;;;;10.05;5.03;;;8.40;60.60;;;;;;7563443;23;20558;-69
2023/11/24 01:23:47;;;;;;;10.02;5.30;;;8.30;60.60;;;;;;7562738;23;20117;-68
2023/11/24 01:26:48;;;;;;;13.48;4.43;;;8.30;60.80;;;;;;7563022;23;20144;-68
2023/11/24 01:29:49;;;;;;;7.90;4.88;;;8.30;60.90;;;;;;7563426;23;20366;-70
2023/11/24 01:32:50;;;;;;;12.77;5.38;;;8.20;60.90;;;;;;7588622;23;20324;-68
2023/11/24 01:35:52;;;;;;;15.65;5.57;;;8.10;60.90;;;;;;7562668;23;20129;-68
2023/11/24 01:38:54;;;;;;;7.55;4.03;;;8.10;61.00;;;;;;7562845;23;20006;-68
2023/11/24 01:41:58;;;;;;;10.38;4.82;;;8.10;61.10;;;;;;7589201;23;19998;-68
2023/11/24 01:44:59;;;;;;;12.45;6.05;;;8.10;61.20;;;;;;7589559;23;20038;-68
2023/11/24 01:47:59;;;;;;;15.00;5.88;;;8.00;61.20;;;;;;7590212;23;20153;-69
2023/11/24 01:51:00;;;;;;;12.60;6.25;;;8.00;61.30;;;;;;7589477;23;20444;-69
2023/11/24 01:54:01;;;;;;;8.10;4.75;;;8.00;61.40;;;;;;7589549;23;20027;-68
2023/11/24 01:57:07;;;;;;;14.40;5.90;;;7.90;61.40;;;;;;7589680;23;20021;-66
2023/11/24 02:00:13;;;;;;;8.93;4.05;;;8.00;61.50;;;;;;7589606;23;20029;-68
2023/11/24 02:03:13;;;;;;;13.48;5.25;;;8.00;61.50;;;;;;7591095;23;20401;-67
2023/11/24 02:06:14;;;;;;;8.07;4.25;;;8.00;61.50;;;;;;7563536;23;20081;-68
2023/11/24 02:09:16;;;;;;;10.65;5.35;;;8.00;61.50;;;;;;7539480;23;20033;-68
2023/11/24 02:12:17;;;;;;;11.00;4.93;;;8.00;61.50;;;;;;7589644;23;20010;-69
2023/11/24 02:15:18;;;;;;;13.65;4.85;;;8.10;61.40;;;;;;7590030;23;20411;-68
2023/11/24 02:18:22;;;;;;;10.93;4.35;;;8.10;61.40;;;;;;7563341;23;20013;-70
2023/11/24 02:21:23;;;;;;;14.52;4.82;;;8.20;61.30;;;;;;7563877;23;20415;-67
2023/11/24 02:24:23;;;;;;;13.85;6.15;;;8.20;61.20;;;;;;7563740;23;20052;-68
2023/11/24 02:27:24;;;;;;;10.43;5.95;;;8.30;61.10;;;;;;7564502;23;20735;-68
2023/11/24 02:30:25;;;;;;;8.20;4.63;;;8.40;61.10;;;;;;7541261;23;20018;-69
2023/11/24 02:33:26;;;;;;;11.95;5.75;;;8.40;61.00;;;;;;7565984;23;20006;-69
2023/11/24 02:36:30;;;;;;;35.90;5.57;;;8.50;60.90;;;;;;7565629;23;20081;-68
2023/11/24 02:39:32;;;;;;;11.43;6.32;;;8.50;60.80;;;;;;7591617;23;20060;-68
2023/11/24 02:42:33;;;;;;;14.40;5.45;;;8.50;60.80;;;;;;7565266;23;20006;-70
2023/11/24 02:45:34;;;;;;;10.63;6.25;;;8.50;60.70;;;;;;7565871;23;20068;-68
2023/11/24 02:48:34;;;;;;;12.32;5.68;;;8.50;60.80;;;;;;7564638;23;20118;-68
2023/11/24 02:51:35;;;;;;;12.95;6.43;;;8.40;60.80;;;;;;7565175;23;20018;-68
2023/11/24 02:54:36;;;;;;;18.98;5.93;;;8.40;60.80;;;;;;7565292;23;20021;-68
2023/11/24 02:57:38;;;;;;;14.10;4.88;;;8.40;60.80;;;;;;7591222;23;20025;-68
2023/11/24 03:00:39;;;;;;;12.32;5.88;;;8.40;60.90;;;;;;7591034;23;20005;-69
2023/11/24 03:03:40;;;;;;;16.38;6.65;;;8.40;60.90;;;;;;7565204;23;20435;-69
2023/11/24 03:06:42;;;;;;;11.05;5.72;;;8.50;61.00;;;;;;7563292;23;20097;-68
2023/11/24 03:09:42;;;;;;;9.63;4.22;;;8.50;61.00;;;;;;7590768;23;20010;-68
2023/11/24 03:12:43;;;;;;;8.77;4.55;;;8.50;61.00;;;;;;7590515;23;20014;-68
2023/11/24 03:15:44;;;;;;;13.45;5.63;;;8.50;61.00;;;;;;7564354;23;20045;-68
2023/11/24 03:18:45;;;;;;;14.98;5.95;;;8.50;61.00;;;;;;7590991;23;20371;-68
2023/11/24 03:21:46;;;;;;;13.20;6.78;;;8.60;61.00;;;;;;7564624;23;20010;-68
2023/11/24 03:24:47;;;;;;;15.50;5.80;;;8.70;61.00;;;;;;7564276;23;20301;-68
2023/11/24 03:27:49;;;;;;;12.68;5.55;;;8.70;60.90;;;;;;7564163;23;20024;-69
2023/11/24 03:30:50;;;;;;;23.95;6.97;;;8.70;60.90;;;;;;7590747;23;20132;-68
2023/11/24 03:33:51;;;;;;;14.10;5.53;;;8.70;61.00;;;;;;7563929;23;20072;-69
2023/11/24 03:36:51;;;;;;;13.00;6.25;;;8.70;61.00;;;;;;7564039;23;20013;-68
2023/11/24 03:39:54;;;;;;;11.63;5.47;;;8.80;60.90;;;;;;7564519;23;20012;-69
2023/11/24 03:42:55;;;;;;;13.90;5.43;;;8.80;60.90;;;;;;7591460;23;20006;-69
2023/11/24 03:45:56;;;;;;;11.07;5.82;;;8.90;60.80;;;;;;7591246;23;20089;-68
2023/11/24 03:48:57;;;;;;;12.20;6.30;;;8.90;60.80;;;;;;7564943;23;20348;-70
2023/11/24 03:51:59;;;;;;;15.90;7.05;;;9.00;60.80;;;;;;7565029;23;20040;-69
2023/11/24 03:55:00;;;;;;;15.15;6.65;;;9.10;60.70;;;;;;7564548;23;20033;-70
2023/11/24 03:58:02;;;;;;;19.77;6.72;;;9.20;60.70;;;;;;7591001;23;20108;-70
2023/11/24 04:01:03;;;;;;;12.70;5.70;;;9.20;60.70;;;;;;7563979;23;20027;-68
2023/11/24 04:04:04;;;;;;;15.00;6.85;;;9.20;60.70;;;;;;7590671;23;20013;-68
2023/11/24 04:07:05;;;;;;;16.70;7.25;;;9.20;60.70;;;;;;7539643;23;20040;-69
2023/11/24 04:10:09;;;;;;;13.23;7.22;;;9.20;60.90;;;;;;7590922;23;20009;-68
2023/11/24 04:13:10;;;;;;;13.10;6.35;;;9.30;61.00;;;;;;7564028;23;20045;-68
2023/11/24 04:16:14;;;;;;;14.32;7.15;;;9.30;61.00;;;;;;7590656;23;20021;-68
2023/11/24 04:19:15;;;;;;;17.55;7.82;;;9.30;60.90;;;;;;7563891;23;20010;-69
2023/11/24 04:22:15;;;;;;;14.18;8.05;;;9.30;61.00;;;;;;7563462;23;20102;-69
2023/11/24 04:25:16;;;;;;;13.65;7.05;;;9.30;61.00;;;;;;7539641;23;20096;-68
2023/11/24 04:28:19;;;;;;;16.98;7.88;;;9.40;61.00;;;;;;7590430;23;20101;-69
2023/11/24 04:31:20;;;;;;;17.52;7.15;;;9.40;61.10;;;;;;7564273;23;20464;-69
2023/11/24 04:34:23;;;;;;;20.73;7.05;;;9.40;61.00;;;;;;7589914;23;20072;-69
2023/11/24 04:37:24;;;;;;;15.23;7.18;;;9.40;61.00;;;;;;7589594;23;20045;-69
2023/11/24 04:40:26;;;;;;;17.15;9.35;;;9.40;61.10;;;;;;7564155;23;20010;-69
2023/11/24 04:43:28;;;;;;;15.35;8.00;;;9.30;61.00;;;;;;7589563;23;20439;-69
2023/11/24 04:46:29;;;;;;;17.45;7.65;;;9.30;61.20;;;;;;7564595;23;20041;-69
2023/11/24 04:49:30;;;;;;;14.82;7.43;;;9.30;61.40;;;;;;7590055;23;20081;-69
2023/11/24 04:52:31;;;;;;;12.32;6.10;;;9.30;61.50;;;;;;7563504;23;20022;-68
2023/11/24 04:55:31;;;;;;;17.95;8.32;;;9.40;61.60;;;;;;7563422;23;20048;-69
2023/11/24 04:58:32;;;;;;;17.48;7.65;;;9.20;61.50;;;;;;7563088;23;20018;-70
2023/11/24 05:01:33;;;;;;;17.25;6.72;;;9.30;61.50;;;;;;7589588;23;20017;-67
2023/11/24 05:04:36;;;;;;;15.05;6.80;;;9.30;61.50;;;;;;7590297;23;20085;-67
2023/11/24 05:07:37;;;;;;;13.77;5.85;;;9.30;61.50;;;;;;7564083;23;20014;-68
2023/11/24 05:10:38;;;;;;;16.42;6.22;;;9.30;61.50;;;;;;7589382;23;20283;-71
2023/11/24 05:13:40;;;;;;;23.88;10.52;;;9.30;61.40;;;;;;7562969;23;20034;-69
2023/11/24 05:16:42;;;;;;;20.25;9.57;;;9.30;61.40;;;;;;7589211;23;20029;-68
2023/11/24 05:19:43;;;;;;;19.95;8.20;;;9.20;61.20;;;;;;7563397;23;20010;-68
2023/11/24 05:22:44;;;;;;;20.42;9.57;;;9.40;61.30;;;;;;7562109;23;20010;-70
2023/11/24 05:25:45;;;;;;;15.25;7.47;;;9.30;61.20;;;;;;7515866;23;20068;-67
2023/11/24 05:28:46;;;;;;;19.85;9.20;;;9.30;61.40;;;;;;7589586;23;20697;-67
2023/11/24 05:31:47;;;;;;;21.10;8.50;;;9.30;61.50;;;;;;7590282;23;20040;-68
2023/11/24 05:34:48;;;;;;;25.92;8.52;;;9.20;61.60;;;;;;7591274;23;20491;-67
2023/11/24 05:37:49;;;;;;;16.88;7.80;;;9.20;61.80;;;;;;7589824;23;20014;-67
2023/11/24 05:40:49;;;;;;;16.38;7.72;;;9.30;61.90;;;;;;7563104;23;20501;-69
2023/11/24 05:43:50;;;;;;;12.18;6.95;;;9.30;61.90;;;;;;7561644;23;20496;-68
2023/11/24 05:46:51;;;;;;;24.10;9.43;;;9.30;61.80;;;;;;7590256;23;20385;-68
2023/11/24 05:49:52;;;;;;;15.07;7.70;;;9.30;61.80;;;;;;7564121;23;20059;-68
2023/11/24 05:52:53;;;;;;;14.48;6.47;;;9.30;61.70;;;;;;7590268;23;20716;-68
2023/11/24 05:55:54;;;;;;;18.75;6.88;;;9.30;61.80;;;;;;7537574;23;20527;-67
2023/11/24 05:58:56;;;;;;;13.95;8.10;;;9.40;61.80;;;;;;7589541;23;20018;-69
2023/11/24 06:01:57;;;;;;;15.02;7.68;;;9.40;61.70;;;;;;7563936;23;20055;-71
2023/11/24 06:04:58;;;;;;;21.92;6.63;;;9.40;61.70;;;;;;7563864;23;20010;-70
2023/11/24 06:08:01;;;;;;;14.50;7.53;;;9.40;61.70;;;;;;7591149;23;20316;-70
2023/11/24 06:11:02;;;;;;;15.27;8.05;;;9.40;61.70;;;;;;7563768;23;20010;-71
2023/11/24 06:14:02;;;;;;;18.17;7.20;;;9.40;61.60;;;;;;7563971;23;20013;-71
2023/11/24 06:17:04;;;;;;;13.57;6.47;;;9.30;61.60;;;;;;7563898;23;20081;-71
2023/11/24 06:20:05;;;;;;;23.50;10.05;;;9.30;61.70;;;;;;7564610;23;20009;-70
2023/11/24 06:23:07;;;;;;;16.17;7.57;;;9.30;61.80;;;;;;7590735;23;20025;-71
2023/11/24 06:26:09;;;;;;;21.02;7.32;;;9.30;61.80;;;;;;7591252;23;20005;-70
2023/11/24 06:29:10;;;;;;;18.40;8.85;;;9.30;61.80;;;;;;7564436;23;20010;-69
2023/11/24 06:32:12;;;;;;;18.52;8.50;;;9.40;61.80;;;;;;7591176;23;20006;-70
2023/11/24 06:35:15;;;;;;;14.25;6.85;;;9.40;61.80;;;;;;7541065;23;20088;-71
2023/11/24 06:38:16;;;;;;;18.15;6.82;;;9.40;61.80;;;;;;7591524;23;20005;-70
2023/11/24 06:41:16;;;;;;;16.60;7.68;;;9.50;61.80;;;;;;7590913;23;20015;-69
2023/11/24 06:44:18;;;;;;;21.00;8.15;;;9.50;61.70;;;;;;7591022;23;20009;-70
2023/11/24 06:47:23;;;;;;;16.55;7.88;;;9.50;61.70;;;;;;7591050;23;20010;-69
2023/11/24 06:50:25;;;;;;;15.77;7.25;;;9.50;61.60;;;;;;7564350;23;20027;-70
2023/11/24 06:53:27;;;;;;;19.70;9.07;;;9.50;61.50;;;;;;7591248;23;20069;-69
2023/11/24 06:56:29;;;;;;;15.38;7.20;;;9.40;61.50;;;;;;7590967;23;20013;-69
2023/11/24 06:59:30;;;;;;;18.55;8.43;;;9.40;61.70;;;;;;7540769;23;20010;-68
2023/11/24 07:02:31;;;;;;;20.08;8.02;;;9.40;61.70;;;;;;7564957;23;20020;-68
2023/11/24 07:05:32;;;;;;;41.22;7.82;;;9.50;61.80;;;;;;7591159;23;20015;-69
2023/11/24 07:08:32;;;;;;;19.80;8.82;;;9.40;61.80;;;;;;7591604;23;20021;-70
2023/11/24 07:11:33;;;;;;;22.30;8.07;;;9.40;61.90;;;;;;7591039;23;20024;-68
2023/11/24 07:14:34;;;;;;;18.67;8.30;;;9.50;61.80;;;;;;7565657;23;20061;-69
2023/11/24 07:17:35;;;;;;;14.25;7.35;;;9.50;61.80;;;;;;7564920;23;20148;-69
2023/11/24 07:20:36;;;;;;;20.48;7.60;;;9.60;61.70;;;;;;7591511;23;20077;-69
2023/11/24 07:23:40;;;;;;;22.85;8.73;;;9.60;61.50;;;;;;7565111;23;20025;-69
2023/11/24 07:26:44;;;;;;;14.38;7.25;;;9.60;61.40;;;;;;7563963;23;20316;-70
2023/11/24 07:29:44;;;;;;;18.42;7.85;;;9.60;61.30;;;;;;7563825;23;20021;-71
2023/11/24 07:32:45;;;;;;;17.25;8.75;;;9.60;61.20;;;;;;7590098;23;20084;-71
2023/11/24 07:35:46;;;;;;;18.75;8.27;;;9.60;61.30;;;;;;7590961;23;20010;-70
2023/11/24 07:38:48;;;;;;;17.58;8.45;;;9.60;61.10;;;;;;7590753;23;20428;-68
2023/11/24 07:41:49;;;;;;;19.35;8.15;;;9.50;61.10;;;;;;7590579;23;20013;-69
2023/11/24 07:44:50;;;;;;;17.23;7.72;;;9.60;61.20;;;;;;7564315;23;20006;-68
2023/11/24 07:47:51;;;;;;;21.88;9.23;;;9.60;61.10;;;;;;7589686;23;20439;-70
2023/11/24 07:50:52;;;;;;;18.73;7.55;;;9.60;61.00;;;;;;7590410;23;20045;-69
2023/11/24 07:53:53;;;;;;;21.77;7.20;;;9.70;61.00;;;;;;7590919;23;20020;-71
2023/11/24 07:56:53;;;;;;;15.68;8.15;;;9.70;60.90;;;;;;7564214;23;20085;-70
2023/11/24 07:59:54;;;;;;;22.38;8.43;;;9.80;60.90;;;;;;7590996;23;20002;-71
2023/11/24 08:02:56;;;;;;;18.77;8.60;;;9.80;60.70;;;;;;7563481;23;20312;-70
2023/11/24 08:05:58;;;;;;;17.17;8.40;;;9.80;60.50;;;;;;7590007;23;20029;-70
2023/11/24 08:09:03;;;;;;;20.60;9.15;;;9.80;60.40;;;;;;7563686;23;20526;-69
2023/11/24 08:12:11;;;;;;;15.32;7.57;;;9.90;60.30;;;;;;7564069;23;20009;-70
2023/11/24 08:15:13;;;;;;;25.60;8.57;;;9.90;60.40;;;;;;7563530;23;20017;-71
2023/11/24 08:18:13;;;;;;;17.55;7.50;;;9.90;60.30;;;;;;7590312;23;20033;-71
2023/11/24 08:21:14;;;;;;;16.90;8.23;;;9.90;60.20;;;;;;7589493;23;20480;-70
2023/11/24 08:24:16;;;;;;;19.67;9.20;;;9.90;60.20;;;;;;7563404;23;20661;-70
2023/11/24 08:27:18;;;;;;;17.95;8.55;;;10.00;60.20;;;;;;7564609;23;20092;-71
2023/11/24 08:30:20;;;;;;;14.27;7.85;;;10.00;60.00;;;;;;7590055;23;20034;-70
2023/11/24 08:33:22;;;;;;;18.13;7.57;;;10.00;59.90;;;;;;7589944;23;20532;-70
2023/11/24 08:36:25;;;;;;;35.13;9.85;;;10.00;59.80;;;;;;7563693;23;20039;-71
2023/11/24 08:39:27;;;;;;;24.98;8.98;;;10.10;59.80;;;;;;7562983;23;20032;-69
2023/11/24 08:42:30;;;;;;;18.20;7.43;;;10.10;59.80;;;;;;7562421;23;20109;-70
2023/11/24 08:45:34;;;;;;;23.05;8.93;;;10.20;59.70;;;;;;7538648;23;20010;-70
2023/11/24 08:48:37;;;;;;;16.63;8.73;;;10.30;59.50;;;;;;7589205;23;20057;-73
2023/11/24 08:51:39;;;;;;;16.60;7.32;;;10.30;59.30;;;;;;7563682;23;20084;-70
2023/11/24 08:54:40;;;;;;;19.05;7.63;;;10.30;59.10;;;;;;7589504;23;20516;-71
2023/11/24 08:57:42;;;;;;;17.92;7.28;;;10.40;58.90;;;;;;7563798;23;20018;-71
2023/11/24 09:00:45;;;;;;;16.63;7.65;;;10.40;58.50;;;;;;7563038;23;20014;-70
2023/11/24 09:03:46;;;;;;;16.42;7.93;;;10.30;58.50;;;;;;7589053;23;20428;-68
2023/11/24 09:06:47;;;;;;;20.90;8.05;;;10.40;58.40;;;;;;7588410;23;20021;-69
2023/11/24 09:09:49;;;;;;;18.70;8.95;;;10.40;58.40;;;;;;7561958;23;20016;-69
2023/11/24 09:12:50;;;;;;;23.80;9.82;;;10.40;58.20;;;;;;7561991;23;20014;-70
2023/11/24 09:15:51;;;;;;;23.30;9.32;;;10.40;58.20;;;;;;7537372;23;20014;-69
2023/11/24 09:18:52;;;;;;;22.23;9.52;;;10.40;58.30;;;;;;7587845;23;20017;-70
2023/11/24 09:21:52;;;;;;;20.83;7.68;;;10.40;58.20;;;;;;7561071;23;20491;-69
2023/11/24 09:24:53;;;;;;;22.63;8.15;;;10.50;58.30;;;;;;7587186;23;20028;-71
2023/11/24 09:27:54;;;;;;;19.50;7.13;;;10.50;58.20;;;;;;7587808;23;20017;-69
2023/11/24 09:30:57;;;;;;;27.38;8.88;;;10.50;58.00;;;;;;7538769;23;20088;-70
2023/11/24 09:33:57;;;;;;;19.67;7.40;;;10.50;57.90;;;;;;7563270;23;20021;-70
2023/11/24 09:36:58;;;;;;;13.90;7.82;;;10.40;57.80;;;;;;7564538;23;20467;-70
2023/11/24 09:40:00;;;;;;;16.40;7.57;;;10.40;57.90;;;;;;7590844;23;20429;-70
2023/11/24 09:43:03;;;;;;;18.02;8.90;;;10.30;58.00;;;;;;7564544;23;20053;-69
2023/11/24 09:46:05;;;;;;;18.55;7.53;;;10.30;58.20;;;;;;7563205;23;20443;-71
2023/11/24 09:49:07;;;;;;;15.43;7.60;;;10.30;58.10;;;;;;7563803;23;20412;-69
2023/11/24 09:52:08;;;;;;;15.70;8.10;;;10.30;58.10;;;;;;7591018;23;20088;-69
2023/11/24 09:55:09;;;;;;;20.02;9.00;;;10.30;58.10;;;;;;7540846;23;20022;-69
2023/11/24 09:58:10;;;;;;;22.15;7.32;;;10.30;58.10;;;;;;7591680;23;20029;-70
2023/11/24 10:01:26;;;;;;;25.58;8.20;;;10.40;58.10;;;;;;7591548;23;20018;-71
2023/11/24 10:04:27;;;;;;;17.08;8.20;;;10.40;57.90;;;;;;7590525;23;20017;-72
2023/11/24 10:07:29;;;;;;;17.23;6.75;;;10.60;57.90;;;;;;7592180;23;20023;-71
2023/11/24 10:10:30;;;;;;;18.55;8.88;;;10.70;57.80;;;;;;7566865;23;20096;-71
2023/11/24 10:13:32;;;;;;;22.77;8.27;;;10.70;57.70;;;;;;7590841;23;20116;-70
2023/11/24 10:16:33;;;;;;;17.05;7.47;;;10.80;57.40;;;;;;7590973;23;20005;-69
2023/11/24 10:19:36;;;;;;;15.45;7.13;;;10.90;57.10;;;;;;7591244;23;20081;-68
2023/11/24 10:22:38;;;;;;;16.40;6.95;;;11.00;57.00;;;;;;7565216;23;20072;-69
2023/11/24 10:25:39;;;;;;;20.20;7.32;;;11.10;56.90;;;;;;7564077;23;20082;-70
2023/11/24 10:28:41;;;;;;;22.48;8.40;;;11.20;56.90;;;;;;7590462;23;20097;-71
2023/11/24 10:31:44;;;;;;;18.77;6.68;;;11.20;56.70;;;;;;7590864;23;20598;-70
2023/11/24 10:34:48;;;;;;;21.95;8.68;;;11.30;56.50;;;;;;7590470;23;20125;-69
2023/11/24 10:37:50;;;;;;;17.45;7.78;;;11.40;56.50;;;;;;7590589;23;20013;-69
2023/11/24 10:40:50;;;;;;;28.80;7.82;;;11.40;56.30;;;;;;7589991;23;20082;-70
2023/11/24 10:43:55;;;;;;;14.57;7.38;;;11.50;56.10;;;;;;7562878;23;20105;-70
2023/11/24 10:47:03;;;;;;;31.77;7.38;;;11.50;56.00;;;;;;7589634;23;20014;-70
2023/11/24 10:50:16;;;;;;;18.38;8.07;;;11.50;56.00;;;;;;7541236;23;20030;-70
2023/11/24 10:53:38;;;;;;;20.73;7.63;;;11.60;55.90;;;;;;7589839;23;20096;-70
2023/11/24 10:56:39;;;;;;;17.40;7.70;;;11.70;55.90;;;;;;7563531;23;20010;-71
2023/11/24 10:59:42;;;;;;;20.52;8.40;;;11.70;55.80;;;;;;7590307;23;20002;-70
2023/11/24 11:02:45;;;;;;;21.33;9.35;;;11.80;55.60;;;;;;7590301;23;20077;-70
2023/11/24 11:06:08;;;;;;;13.70;6.93;;;11.90;55.50;;;;;;7563076;23;20009;-70
2023/11/24 11:09:29;;;;;;;18.50;7.38;;;11.90;55.30;;;;;;7589774;23;20010;-70
2023/11/24 11:12:48;;;;;;;18.85;9.10;;;11.90;55.30;;;;;;7561843;23;20034;-72
2023/11/24 11:15:50;;;;;;;19.90;7.95;;;12.00;55.30;;;;;;7541003;23;20124;-71
2023/11/24 11:18:51;;;;;;;20.40;8.60;;;12.00;55.00;;;;;;7589807;23;20002;-72
2023/11/24 11:21:59;;;;;;;16.75;7.22;;;12.00;55.10;;;;;;7563840;23;20010;-71
2023/11/24 11:25:13;;;;;;;24.85;8.38;;;11.90;55.00;;;;;;7564808;23;20002;-70
2023/11/24 11:28:17;;;;;;;28.40;9.50;;;11.90;55.30;;;;;;7564259;23;20024;-72
2023/11/24 11:31:22;;;;;;;16.50;7.90;;;12.00;55.40;;;;;;7539650;23;20074;-71
2023/11/24 11:34:29;;;;;;;21.08;8.18;;;12.00;55.40;;;;;;7563379;23;20025;-71
2023/11/24 11:37:31;;;;;;;29.02;8.02;;;12.10;55.20;;;;;;7589597;23;20006;-73
2023/11/24 11:40:35;;;;;;;23.50;10.50;;;12.30;55.10;;;;;;7565344;23;20006;-72
2023/11/24 11:43:53;;;;;;;22.77;7.88;;;12.60;54.30;;;;;;7589987;23;20006;-71
2023/11/24 11:47:21;;;;;;;18.70;8.10;;;12.60;54.20;;;;;;7539554;23;20018;-70
2023/11/24 11:50:24;;;;;;;32.70;10.43;;;12.60;54.40;;;;;;7588635;23;20129;-70
2023/11/24 11:53:28;;;;;;;34.05;11.65;;;12.60;54.20;;;;;;7590240;23;20045;-71
2023/11/24 11:56:29;;;;;;;20.67;9.38;;;12.70;54.30;;;;;;7588365;23;20105;-71
2023/11/24 11:59:30;;;;;;;27.42;9.35;;;12.80;54.20;;;;;;7563160;23;20089;-72
2023/11/24 12:02:32;;;;;;;15.38;8.15;;;12.80;54.10;;;;;;7563082;23;20039;-71
2023/11/24 12:05:33;;;;;;;19.38;8.25;;;12.80;54.10;;;;;;7588585;23;20021;-71
2023/11/24 12:08:38;;;;;;;18.90;8.05;;;12.90;54.10;;;;;;7563066;23;20013;-71
2023/11/24 12:11:39;;;;;;;14.70;7.13;;;12.90;54.20;;;;;;7564522;23;20044;-71
2023/11/24 12:14:42;;;;;;;15.68;7.35;;;12.90;54.10;;;;;;7564181;23;20416;-72
2023/11/24 12:17:48;;;;;;;17.80;8.18;;;12.90;54.10;;;;;;7590794;23;20509;-70
2023/11/24 12:20:50;;;;;;;21.92;9.05;;;12.90;54.10;;;;;;7563668;23;20014;-70
2023/11/24 12:23:51;;;;;;;20.58;8.18;;;12.90;54.10;;;;;;7562802;23;20010;-69
2023/11/24 12:26:56;;;;;;;30.63;8.38;;;12.90;54.10;;;;;;7590389;23;20081;-70
2023/11/24 12:30:03;;;;;;;20.00;8.60;;;12.90;54.10;;;;;;7589896;23;20090;-70
2023/11/24 12:33:05;;;;;;;17.23;8.73;;;12.90;54.10;;;;;;7589352;23;20550;-70
2023/11/24 12:36:07;;;;;;;16.85;8.70;;;13.00;54.10;;;;;;7563003;23;20019;-71
2023/11/24 12:39:13;;;;;;;16.50;6.82;;;13.00;54.10;;;;;;7590287;23;20069;-72
2023/11/24 12:42:16;;;;;;;15.98;7.20;;;13.00;54.10;;;;;;7590510;23;20012;-70
2023/11/24 12:45:18;;;;;;;19.58;7.72;;;12.90;54.10;;;;;;7588880;23;20006;-70
2023/11/24 12:48:24;;;;;;;17.17;7.60;;;12.90;54.30;;;;;;7562970;23;20440;-70
2023/11/24 12:51:25;;;;;;;20.23;8.18;;;12.90;54.30;;;;;;7589136;23;20020;-71
2023/11/24 12:54:27;;;;;;;18.02;7.65;;;12.90;54.30;;;;;;7588933;23;20021;-71
2023/11/24 12:57:28;;;;;;;19.40;7.72;;;12.90;54.40;;;;;;7589704;23;20010;-71
2023/11/24 13:00:29;;;;;;;15.55;7.70;;;12.90;54.50;;;;;;7589637;23;20100;-70
2023/11/24 13:03:31;;;;;;;18.65;7.03;;;12.90;54.60;;;;;;7589034;23;20624;-69
2023/11/24 13:06:31;;;;;;;18.80;8.45;;;12.90;54.50;;;;;;7588830;23;20192;-70
2023/11/24 13:09:33;;;;;;;14.05;7.50;;;12.90;54.50;;;;;;7538550;23;20349;-70
2023/11/24 13:12:34;;;;;;;13.20;6.75;;;13.00;54.60;;;;;;7589274;23;20013;-71
2023/11/24 13:15:35;;;;;;;24.08;6.72;;;13.00;54.60;;;;;;7563195;23;20033;-70
2023/11/24 13:18:41;;;;;;;16.25;7.68;;;13.00;54.60;;;;;;7589491;23;20010;-70
2023/11/24 13:21:43;;;;;;;25.48;6.72;;;13.00;54.60;;;;;;7565228;23;20081;-71
2023/11/24 13:24:46;;;;;;;18.20;7.63;;;13.10;54.50;;;;;;7563867;23;20406;-73
2023/11/24 13:28:01;;;;;;;13.77;6.55;;;13.10;54.50;;;;;;7593551;23;20085;-71
2023/11/24 13:31:02;;;;;;;14.27;7.82;;;13.20;54.50;;;;;;7562946;23;20014;-70
2023/11/24 13:34:03;;;;;;;24.23;7.03;;;13.30;54.50;;;;;;7562221;23;20088;-71
2023/11/24 13:37:04;;;;;;;14.77;7.20;;;13.30;54.40;;;;;;7561907;23;20046;-69
2023/11/24 13:40:06;;;;;;;9.15;3.95;;;13.40;54.30;;;;;;7588442;23;20009;-70
2023/11/24 13:43:10;;;;;;;14.48;6.53;;;13.50;54.20;;;;;;7562087;23;20040;-69
2023/11/24 13:46:12;;;;;;;15.45;6.78;;;13.50;54.10;;;;;;7588673;23;20444;-71
2023/11/24 13:49:13;;;;;;;18.67;7.72;;;13.70;54.10;;;;;;7562951;23;20157;-69
2023/11/24 13:52:16;;;;;;;17.25;7.85;;;13.70;53.80;;;;;;7589818;23;20515;-69
2023/11/24 13:55:17;;;;;;;13.75;6.28;;;13.90;53.80;;;;;;7562304;23;20320;-70
2023/11/24 13:58:18;;;;;;;17.98;7.50;;;14.00;53.60;;;;;;7562361;23;20009;-70
2023/11/24 14:01:19;;;;;;;14.68;5.72;;;14.10;53.30;;;;;;7588471;23;20006;-69
2023/11/24 14:04:21;;;;;;;15.70;5.57;;;14.20;53.10;;;;;;7587972;23;20534;-70
2023/11/24 14:07:24;;;;;;;12.07;6.10;;;14.30;53.10;;;;;;7525618;23;20365;-70
2023/11/24 14:10:26;;;;;;;16.80;6.82;;;14.40;53.00;;;;;;7552565;23;20021;-70
2023/11/24 14:13:29;;;;;;;15.48;7.13;;;14.50;52.80;;;;;;7527002;23;20017;-70
2023/11/24 14:16:30;;;;;;;13.07;6.28;;;14.60;52.60;;;;;;7526837;23;20045;-69
2023/11/24 14:19:31;;;;;;;11.52;5.75;;;14.70;52.40;;;;;;7527570;23;20057;-69
2023/11/24 14:22:32;;;;;;;14.98;5.80;;;14.70;52.20;;;;;;7528081;23;20169;-70
2023/11/24 14:25:34;;;;;;;12.63;4.85;;;14.80;52.10;;;;;;7503946;23;20089;-70
2023/11/24 14:28:36;;;;;;;11.57;4.85;;;14.70;52.10;;;;;;7528893;23;20129;-70
2023/11/24 14:31:37;;;;;;;11.30;5.38;;;14.70;52.20;;;;;;7529175;23;20119;-68
2023/11/24 14:34:38;;;;;;;8.30;4.45;;;14.70;52.20;;;;;;7528411;23;20474;-69
2023/11/24 14:37:39;;;;;;;10.35;4.20;;;14.70;52.10;;;;;;7528683;23;20034;-70
2023/11/24 14:40:42;;;;;;;14.60;6.03;;;14.70;52.30;;;;;;7553772;23;20009;-70
2023/11/24 14:43:44;;;;;;;10.40;5.47;;;14.70;52.40;;;;;;7527823;23;20021;-71
2023/11/24 14:46:44;;;;;;;5.70;2.58;;;14.60;52.30;;;;;;7527679;23;20119;-70
2023/11/24 14:49:45;;;;;;;2.92;1.67;;;14.60;52.50;;;;;;7528053;23;20348;-71
2023/11/24 14:52:46;;;;;;;5.30;2.55;;;14.70;52.70;;;;;;7553885;23;20135;-70
2023/11/24 14:55:49;;;;;;;2.97;1.45;;;14.70;52.80;;;;;;7527800;23;20014;-70
2023/11/24 14:58:50;;;;;;;7.00;3.42;;;14.70;52.80;;;;;;7528957;23;20007;-68
2023/11/24 15:01:58;;;;;;;7.32;3.50;;;14.70;52.80;;;;;;7526816;23;20371;-70
2023/11/24 15:04:59;;;;;;;13.02;3.72;;;14.70;52.60;;;;;;7527860;23;20029;-69
2023/11/24 15:08:07;;;;;;;11.32;4.22;;;14.60;52.60;;;;;;7553974;23;20085;-70
2023/11/24 15:11:09;;;;;;;11.93;5.13;;;14.50;52.50;;;;;;7529694;23;20046;-70
2023/11/24 15:14:14;;;;;;;5.30;3.53;;;14.50;52.40;;;;;;7529025;23;20101;-71
2023/11/24 15:17:16;;;;;;;3.33;2.10;;;14.40;52.50;;;;;;7554007;23;20069;-70
2023/11/24 15:20:25;;;;;;;1.25;0.80;;;14.40;53.00;;;;;;7527810;23;20019;-70
2023/11/24 15:23:26;;;;;;;;;;;14.30;53.40;;;;;;7554317;23;20305;-71
2023/11/24 15:26:27;;;;;;;5.90;2.63;;;14.30;53.80;;;;;;7553500;23;19923;-70
2023/11/24 15:29:28;;;;;;;6.43;1.38;;;14.30;53.80;;;;;;7554679;23;20101;-71
2023/11/24 15:32:28;;;;;;;2.35;1.13;;;14.30;54.10;;;;;;7528385;23;20006;-70
2023/11/24 15:35:29;;;;;;;3.13;1.85;;;14.30;54.30;;;;;;7553710;23;20034;-70
2023/11/24 15:38:31;;;;;;;3.88;2.20;;;14.30;54.40;;;;;;7554035;23;20053;-71
2023/11/24 15:41:39;;;;;;;3.55;1.90;;;14.30;54.50;;;;;;7528285;23;20006;-70
2023/11/24 15:44:39;;;;;;;4.05;1.60;;;14.30;54.40;;;;;;7554427;23;20014;-70